createdAt,value
2019-04-26T00:00:17.067Z,0.8
2019-04-26T00:01:17.288Z,0.5
2019-04-26T00:02:17.476Z,0.5
2019-04-26T00:03:17.549Z,0.5
2019-04-26T00:04:17.522Z,1.5
2019-04-26T00:05:17.693Z,0.3
2019-04-26T00:06:17.653Z,0.8
2019-04-26T00:07:17.733Z,1.4
2019-04-26T00:16:19.988Z,0.3
2019-04-26T00:18:19.954Z,0.7
2019-04-26T00:20:20.153Z,0.8
2019-04-26T00:22:20.255Z,0.9
2019-04-26T00:24:20.446Z,0.7
2019-04-26T00:26:20.839Z,0.7
2019-04-26T00:27:20.322Z,0.5
2019-04-26T00:28:20.156Z,1.2
2019-04-26T00:29:20.216Z,0.4
2019-04-26T00:30:20.253Z,0.6
2019-04-26T00:31:20.366Z,0.6
2019-04-26T00:32:20.342Z,0.5
2019-04-26T00:33:20.449Z,0.7
2019-04-26T00:34:20.689Z,1.1
2019-04-26T00:35:21.160Z,0.4
2019-04-26T00:36:21.871Z,1
2019-04-26T00:37:21.488Z,0.8
2019-04-26T00:38:21.375Z,1.6
2019-04-26T00:39:21.373Z,0.4
2019-04-26T00:40:21.404Z,0.7
2019-04-26T00:41:21.644Z,0.7
2019-04-26T00:42:21.697Z,0.6
2019-04-26T00:43:21.655Z,1.2
2019-04-26T00:44:21.853Z,0.6
2019-04-26T00:45:21.921Z,0.4
2019-04-26T00:46:22.018Z,0.6
2019-04-26T00:47:22.243Z,1
2019-04-26T00:48:22.114Z,1
2019-04-26T00:49:22.324Z,0.5
2019-04-26T00:50:22.326Z,0.8
2019-04-26T00:51:22.443Z,1
2019-04-26T00:52:22.670Z,1
2019-04-26T00:53:22.805Z,0.4
2019-04-26T00:54:23.291Z,0.7
2019-04-26T00:55:22.888Z,0.6
2019-04-26T00:56:23.624Z,0.5
2019-04-26T00:57:23.402Z,1
2019-04-26T00:58:23.424Z,0.4
2019-04-26T00:59:23.678Z,0.4
2019-04-26T01:00:24.995Z,1.1
2019-04-26T01:01:23.965Z,0.4
2019-04-26T01:02:24.111Z,0.5
2019-04-26T01:03:24.044Z,1
2019-04-26T01:04:24.078Z,0.4
2019-04-26T01:05:24.159Z,1
2019-04-26T01:06:24.115Z,0.5
2019-04-26T01:07:24.333Z,0.4
2019-04-26T01:08:24.481Z,0.6
2019-04-26T01:09:24.740Z,0.9
2019-04-26T01:10:24.814Z,0.9
2019-04-26T01:11:24.992Z,0.9
2019-04-26T01:12:25.003Z,1.1
2019-04-26T01:13:25.184Z,0.7
2019-04-26T01:14:25.208Z,0.5
2019-04-26T01:15:25.601Z,0.5
2019-04-26T01:16:25.402Z,0.7
2019-04-26T01:17:25.717Z,0.4
2019-04-26T01:18:25.465Z,0.6
2019-04-26T01:19:25.568Z,0.5
2019-04-26T01:20:25.742Z,0.4
2019-04-26T01:21:25.830Z,0.6
2019-04-26T01:22:26.541Z,0.4
2019-04-26T01:23:26.239Z,0.4
2019-04-26T01:24:26.316Z,0.4
2019-04-26T01:25:26.450Z,0.8
2019-04-26T01:26:26.361Z,0.8
2019-04-26T01:27:26.654Z,0.8
2019-04-26T01:28:26.964Z,0.5
2019-04-26T01:29:26.964Z,0.7
2019-04-26T01:30:26.973Z,0.4
2019-04-26T01:31:27.197Z,0.4
2019-04-26T01:32:27.307Z,0.8
2019-04-26T01:33:27.229Z,0.7
2019-04-26T01:34:27.281Z,0.6
2019-04-26T01:35:27.410Z,0.4
2019-04-26T01:36:27.558Z,0.6
2019-04-26T01:37:27.868Z,0.6
2019-04-26T01:44:29.853Z,0.6
2019-04-26T01:46:30.064Z,0.7
2019-04-26T01:48:30.359Z,0.8
2019-04-26T01:50:30.692Z,0.6
2019-04-26T01:52:30.891Z,0.7
2019-04-26T01:54:30.900Z,0.5
2019-04-26T01:55:30.160Z,0.5
2019-04-26T01:56:30.371Z,0.8
2019-04-26T01:57:30.470Z,0.7
2019-04-26T01:58:30.374Z,0.8
2019-04-26T01:59:30.486Z,0.5
2019-04-26T02:00:30.744Z,0.4
2019-04-26T02:01:30.637Z,0.5
2019-04-26T02:02:30.959Z,0.5
2019-04-26T02:03:30.857Z,0.8
2019-04-26T02:04:30.990Z,0.5
2019-04-26T02:05:31.062Z,1
2019-04-26T02:06:33.851Z,0.6
2019-04-26T02:07:31.567Z,0.5
2019-04-26T02:08:31.470Z,0.6
2019-04-26T02:09:31.671Z,0.6
2019-04-26T02:10:31.726Z,0.6
2019-04-26T02:11:32.027Z,0.5
2019-04-26T02:12:32.151Z,0.8
2019-04-26T02:13:32.070Z,0.3
2019-04-26T02:14:32.319Z,0.8
2019-04-26T02:15:32.332Z,1
2019-04-26T02:16:32.353Z,0.6
2019-04-26T02:17:32.654Z,0.8
2019-04-26T02:18:32.588Z,0.4
2019-04-26T02:19:32.699Z,0.4
2019-04-26T02:20:32.989Z,0.6
2019-04-26T02:21:33.238Z,0.4
2019-04-26T02:22:33.158Z,0.8
2019-04-26T02:23:33.273Z,0.5
2019-04-26T02:24:33.374Z,0.6
2019-04-26T02:25:33.321Z,0.9
2019-04-26T02:26:33.589Z,0.5
2019-04-26T02:27:33.579Z,1.1
2019-04-26T02:28:33.608Z,0.3
2019-04-26T02:29:33.765Z,0.4
2019-04-26T02:30:35.140Z,0.6
2019-04-26T02:31:35.829Z,0.7
2019-04-26T02:32:35.174Z,0.5
2019-04-26T02:33:35.292Z,0.6
2019-04-26T02:34:35.772Z,0.7
2019-04-26T02:35:34.488Z,1
2019-04-26T02:36:52.646Z,0.5
2019-04-26T02:37:36.655Z,1.1
2019-04-26T02:38:35.030Z,0.9
2019-04-26T02:39:35.776Z,0.5
2019-04-26T02:40:35.452Z,0.4
2019-04-26T02:41:35.641Z,0.5
2019-04-26T02:42:36.675Z,0.5
2019-04-26T02:43:35.779Z,0.5
2019-04-26T02:44:36.942Z,0.7
2019-04-26T02:45:36.705Z,0.3
2019-04-26T02:46:36.446Z,0.6
2019-04-26T02:47:37.216Z,0.4
2019-04-26T02:48:36.477Z,0.4
2019-04-26T02:49:36.988Z,0.5
2019-04-26T02:50:36.914Z,0.4
2019-04-26T02:51:36.661Z,0.5
2019-04-26T02:52:37.547Z,0.7
2019-04-26T02:53:37.331Z,0.5
2019-04-26T02:54:36.948Z,0.8
2019-04-26T02:55:40.103Z,0.6
2019-04-26T02:56:38.176Z,1.8
2019-04-26T02:57:37.197Z,0.4
2019-04-26T02:58:37.655Z,0.5
2019-04-26T02:59:38.686Z,0.6
2019-04-26T03:00:37.647Z,0.5
2019-04-26T03:01:38.649Z,1
2019-04-26T03:02:38.904Z,0.8
2019-04-26T03:03:38.065Z,1
2019-04-26T03:04:37.969Z,0.6
2019-04-26T03:05:37.963Z,0.3
2019-04-26T03:06:39.050Z,0.5
2019-04-26T03:14:40.244Z,0.9
2019-04-26T03:16:41.251Z,0.5
2019-04-26T03:18:41.473Z,0.8
2019-04-26T03:20:40.803Z,0.5
2019-04-26T03:22:41.124Z,0.9
2019-04-26T03:24:40.953Z,0.6
2019-04-26T03:25:40.569Z,0.4
2019-04-26T03:26:41.481Z,0.7
2019-04-26T03:27:41.765Z,0.5
2019-04-26T03:28:41.945Z,0.8
2019-04-26T03:29:41.852Z,1
2019-04-26T03:30:48.431Z,0.5
2019-04-26T03:31:49.503Z,0.3
2019-04-26T03:32:50.195Z,0.6
2019-04-26T03:33:49.833Z,0.7
2019-04-26T03:34:50.266Z,0.6
2019-04-26T03:35:52.256Z,0.5
2019-04-26T03:36:42.787Z,1.1
2019-04-26T03:37:42.526Z,0.5
2019-04-26T03:38:41.816Z,0.7
2019-04-26T03:39:42.817Z,0.7
2019-04-26T03:40:42.942Z,0.6
2019-04-26T03:41:42.819Z,0.5
2019-04-26T03:42:42.640Z,0.5
2019-04-26T03:43:43.108Z,0.5
2019-04-26T03:44:42.647Z,1.1
2019-04-26T03:45:42.911Z,0.9
2019-04-26T03:46:43.595Z,0.4
2019-04-26T03:47:44.316Z,0.4
2019-04-26T03:48:43.368Z,0.4
2019-04-26T03:49:43.950Z,1
2019-04-26T03:50:43.403Z,0.6
2019-04-26T03:51:43.356Z,0.8
2019-04-26T03:52:44.034Z,0.7
2019-04-26T03:53:44.358Z,0.4
2019-04-26T03:54:43.505Z,0.5
2019-04-26T03:55:44.025Z,0.7
2019-04-26T03:56:43.943Z,0.5
2019-04-26T03:57:44.646Z,0.8
2019-04-26T03:58:43.950Z,0.6
2019-04-26T03:59:44.518Z,0.8
2019-04-26T04:00:45.545Z,0.6
2019-04-26T04:01:44.791Z,0.5
2019-04-26T04:02:45.501Z,1
2019-04-26T04:03:46.019Z,1
2019-04-26T04:04:45.310Z,0.4
2019-04-26T04:05:45.961Z,0.8
2019-04-26T04:06:57.905Z,0.3
2019-04-26T04:07:49.301Z,0.8
2019-04-26T04:08:46.472Z,0.6
2019-04-26T04:09:45.342Z,0.5
2019-04-26T04:10:45.945Z,0.8
2019-04-26T04:11:47.031Z,0.4
2019-04-26T04:12:46.186Z,0.8
2019-04-26T04:13:48.856Z,0.7
2019-04-26T04:14:47.072Z,0.3
2019-04-26T04:15:46.636Z,0.7
2019-04-26T04:16:47.217Z,0.3
2019-04-26T04:17:48.162Z,0.5
2019-04-26T04:18:46.104Z,0.4
2019-04-26T04:19:46.241Z,1.1
2019-04-26T04:20:46.665Z,0.4
2019-04-26T04:21:46.880Z,0.7
2019-04-26T04:22:47.759Z,0.8
2019-04-26T04:23:47.097Z,0.4
2019-04-26T04:24:47.234Z,0.5
2019-04-26T04:25:47.617Z,0.4
2019-04-26T04:26:47.170Z,0.6
2019-04-26T04:27:47.685Z,0.9
2019-04-26T04:28:48.201Z,0.8
2019-04-26T04:29:53.218Z,0.9
2019-04-26T04:30:47.646Z,1
2019-04-26T04:31:47.944Z,0.5
2019-04-26T04:32:48.091Z,0.4
2019-04-26T04:42:50.872Z,0.4
2019-04-26T04:44:50.609Z,0.4
2019-04-26T04:46:52.373Z,0.5
2019-04-26T04:47:52.311Z,0.4
2019-04-26T04:48:51.068Z,0.6
2019-04-26T04:49:50.832Z,0.5
2019-04-26T04:50:51.012Z,1.1
2019-04-26T04:51:50.247Z,1.1
2019-04-26T04:52:50.696Z,0.4
2019-04-26T04:53:50.417Z,0.3
2019-04-26T04:55:05.002Z,0.4
2019-04-26T04:55:50.865Z,0.6
2019-04-26T04:56:50.756Z,0.7
2019-04-26T04:57:51.102Z,0.3
2019-04-26T04:58:51.125Z,0.6
2019-04-26T04:59:51.367Z,0.5
2019-04-26T05:00:52.501Z,0.7
2019-04-26T05:01:51.473Z,1.7
2019-04-26T05:02:52.409Z,0.6
2019-04-26T05:03:52.116Z,0.7
2019-04-26T05:04:52.154Z,0.7
2019-04-26T05:05:52.224Z,1.1
2019-04-26T05:06:52.229Z,0.6
2019-04-26T05:08:05.111Z,0.6
2019-04-26T05:08:52.937Z,0.4
2019-04-26T05:09:52.686Z,0.9
2019-04-26T05:10:53.135Z,1.1
2019-04-26T05:11:52.888Z,0.8
2019-04-26T05:12:53.312Z,1.2
2019-04-26T05:13:53.204Z,1
2019-04-26T05:14:53.293Z,2.8
2019-04-26T05:15:53.871Z,2.1
2019-04-26T05:16:53.574Z,2
2019-04-26T05:17:54.815Z,1
2019-04-26T05:18:53.814Z,2.1
2019-04-26T05:19:53.808Z,1.8
2019-04-26T05:20:54.422Z,1.7
2019-04-26T05:21:54.070Z,1.8
2019-04-26T05:22:54.388Z,1.2
2019-04-26T05:23:54.215Z,3.9
2019-04-26T05:24:54.373Z,1.5
2019-04-26T05:25:54.578Z,1.3
2019-04-26T05:26:54.645Z,2.4
2019-04-26T05:27:56.154Z,2.3
2019-04-26T05:28:54.867Z,2.8
2019-04-26T05:29:55.163Z,1.8
2019-04-26T05:30:55.151Z,1.9
2019-04-26T05:31:55.266Z,1.9
2019-04-26T05:32:55.993Z,2.6
2019-04-26T05:33:55.642Z,1.2
2019-04-26T05:34:55.854Z,1.5
2019-04-26T05:35:56.282Z,1.8
2019-04-26T05:36:55.854Z,1.6
2019-04-26T05:37:56.289Z,1.5
2019-04-26T05:38:56.532Z,3.4
2019-04-26T05:39:56.380Z,2.5
2019-04-26T05:40:56.708Z,1.6
2019-04-26T05:41:56.754Z,1.5
2019-04-26T05:42:56.956Z,6
2019-04-26T05:43:56.931Z,2.2
2019-04-26T05:44:57.934Z,3.9
2019-04-26T05:46:59.957Z,1.9
2019-04-26T05:53:00.775Z,2
2019-04-26T05:59:59.917Z,3
2019-04-26T06:01:59.947Z,1.9
2019-04-26T06:03:00.229Z,3.1
2019-04-26T06:05:00.411Z,3.4
2019-04-26T06:07:00.354Z,3.4
2019-04-26T06:09:00.610Z,3
2019-04-26T06:11:01.632Z,3.3
2019-04-26T06:11:59.948Z,3.3
2019-04-26T06:14:00.956Z,2.7
2019-04-26T06:14:59.870Z,1.6
2019-04-26T06:16:01.371Z,2
2019-04-26T06:17:00.365Z,3.5
2019-04-26T06:18:00.707Z,2.6
2019-04-26T06:19:00.657Z,5
2019-04-26T06:20:01.278Z,2.8
2019-04-26T06:21:01.064Z,2.1
2019-04-26T06:22:01.108Z,2.3
2019-04-26T06:23:01.005Z,5.7
2019-04-26T06:24:00.985Z,1.9
2019-04-26T06:25:01.485Z,1.8
2019-04-26T06:26:03.290Z,2.5
2019-04-26T06:27:10.911Z,1.8
2019-04-26T06:28:01.651Z,3.7
2019-04-26T06:29:04.289Z,3
2019-04-26T06:30:02.160Z,3.6
2019-04-26T06:31:02.472Z,2.5
2019-04-26T06:32:03.656Z,2.7
2019-04-26T06:33:09.226Z,2.2
2019-04-26T06:35:02.423Z,2.7
2019-04-26T06:36:03.350Z,2.6
2019-04-26T06:37:03.249Z,2.5
2019-04-26T06:38:02.911Z,3.7
2019-04-26T06:39:03.082Z,3.6
2019-04-26T06:40:03.420Z,2.7
2019-04-26T06:41:03.387Z,1.9
2019-04-26T06:42:03.948Z,2.1
2019-04-26T06:43:04.138Z,2.8
2019-04-26T06:44:03.756Z,2.4
2019-04-26T06:45:03.644Z,1.4
2019-04-26T06:46:03.649Z,2.3
2019-04-26T06:47:05.543Z,2.5
2019-04-26T06:48:05.030Z,3.5
2019-04-26T06:49:04.456Z,1.2
2019-04-26T06:50:09.032Z,4.6
2019-04-26T06:53:08.036Z,2.7
2019-04-26T06:55:05.791Z,2.2
2019-04-26T06:56:06.438Z,2.2
2019-04-26T06:57:12.513Z,2.1
2019-04-26T07:00:07.675Z,1.8
2019-04-26T07:01:06.980Z,1.2
2019-04-26T07:02:07.213Z,1.8
2019-04-26T07:03:06.770Z,1.1
2019-04-26T07:04:11.609Z,2.4
2019-04-26T07:07:12.237Z,3.7
2019-04-26T07:08:16.046Z,2.4
2019-04-26T07:09:10.396Z,2.7
2019-04-26T07:11:08.485Z,2.3
2019-04-26T07:13:13.679Z,1.8
2019-04-26T07:16:19.376Z,1.4
2019-04-26T07:18:11.748Z,1.5
2019-04-26T07:19:12.255Z,2.7
2019-04-26T07:21:15.393Z,2.8
2019-04-26T07:22:09.921Z,2.4
2019-04-26T07:24:12.332Z,2
2019-04-26T07:25:10.070Z,1.6
2019-04-26T07:27:12.067Z,1.7
2019-04-26T07:28:13.520Z,3.6
2019-04-26T07:29:10.168Z,2.6
2019-04-26T07:30:11.025Z,3.7
2019-04-26T07:32:10.526Z,3.3
2019-04-26T07:34:10.446Z,3.5
2019-04-26T07:36:10.895Z,4.7
2019-04-26T07:37:10.315Z,1.8
2019-04-26T07:38:09.999Z,1.7
2019-04-26T07:39:18.100Z,2.9
2019-04-26T07:40:10.335Z,1.7
2019-04-26T07:41:10.439Z,3.8
2019-04-26T07:42:10.518Z,3.9
2019-04-26T07:43:11.486Z,4
2019-04-26T07:44:10.793Z,2.3
2019-04-26T07:45:11.353Z,1.4
2019-04-26T07:46:11.653Z,1.8
2019-04-26T07:47:14.175Z,1.8
2019-04-26T07:48:15.671Z,4.4
2019-04-26T07:49:11.431Z,2.5
2019-04-26T07:50:13.033Z,3.7
2019-04-26T07:51:12.630Z,1.9
2019-04-26T07:52:11.628Z,3.2
2019-04-26T07:53:12.397Z,5
2019-04-26T07:54:12.127Z,2.4
2019-04-26T07:55:11.805Z,3.5
2019-04-26T07:56:12.570Z,1.2
2019-04-26T07:57:11.859Z,3.6
2019-04-26T07:58:12.191Z,3.1
2019-04-26T07:59:13.862Z,2
2019-04-26T08:00:14.392Z,2.8
2019-04-26T08:01:13.076Z,2.1
2019-04-26T08:02:14.805Z,2.8
2019-04-26T08:03:14.043Z,5.1
2019-04-26T08:04:12.969Z,1.5
2019-04-26T08:05:12.496Z,2.1
2019-04-26T08:06:12.660Z,3.4
2019-04-26T08:07:14.293Z,4.3
2019-04-26T08:08:13.885Z,2.6
2019-04-26T08:09:24.620Z,2.3
2019-04-26T08:10:13.524Z,3.2
2019-04-26T08:11:13.892Z,4
2019-04-26T08:12:13.107Z,3.4
2019-04-26T08:13:14.123Z,2.9
2019-04-26T08:14:13.656Z,4.7
2019-04-26T08:15:14.647Z,1.9
2019-04-26T08:16:13.490Z,1.5
2019-04-26T08:17:13.751Z,2.3
2019-04-26T08:18:14.118Z,1.6
2019-04-26T08:19:13.588Z,2.6
2019-04-26T08:20:14.338Z,2.7
2019-04-26T08:21:17.211Z,1.2
2019-04-26T08:22:21.553Z,2.1
2019-04-26T08:24:17.772Z,2.9
2019-04-26T08:26:14.436Z,2
2019-04-26T08:27:20.928Z,2.2
2019-04-26T08:28:15.425Z,1.4
2019-04-26T08:29:15.823Z,2
2019-04-26T08:30:17.375Z,2.5
2019-04-26T08:31:24.652Z,2.4
2019-04-26T08:33:17.007Z,2.4
2019-04-26T08:34:15.651Z,3.7
2019-04-26T08:35:20.456Z,1.8
2019-04-26T08:36:16.600Z,2.3
2019-04-26T08:37:18.061Z,1.1
2019-04-26T08:38:20.763Z,2.6
2019-04-26T08:39:17.025Z,2.7
2019-04-26T08:40:27.836Z,2.6
2019-04-26T08:43:21.520Z,2.3
2019-04-26T08:45:20.853Z,2.4
2019-04-26T08:46:27.308Z,3.6
